x

Buoy B01 - Western Maine Shelf (44030) Wave Buoy

8:04pm - Thu 27th Jul 2017 All times are EDT. -4 hours from GMT.

  • Sig Wave height 3.3ft
  • Peak Period 8s
  • Wind
    13mph, 16mph gusts
  • Sea Temp 64°f
  • Air Temp 66°f
  • Sea Pressure 1010.4mb
  • Buoy B01 - Western Maine Shelf
  • Buoy B01 - Western Maine Shelf

More Historic Weather Station data

Upgrade to MSW Pro to gain access to the past 30 days of data for over 8000 Wavebouys and Weather Stations around the globe.

Join Pro

Comparision Forecast

View Surf forecast
   
Thu 07/27 8:04pm 3.5ft 8s 13 16 mph 1010.4mb 64f 66f
7:04pm 3.5ft 5s 16 18 mph 1010.4mb 64f 66f
6:04pm 3.5ft 8s 13 16 mph 1010.6mb 63f 65f
5:04pm 3.5ft 8s 16 20 mph 1010.7mb 63f 66f
4:04pm 3.5ft 5s 16 18 mph 1010.9mb 63f 66f
3:04pm 3.5ft 8s 16 18 mph 1011.7mb 63f 66f
2:04pm 2.5ft 6s 16 18 mph 1012.1mb 63f 65f
1:04pm 3ft 6s 13 16 mph 1012.9mb 63f 65f
12:04pm 3ft 8s 16 18 mph 1013.4mb 63f 65f
11:04am 3.5ft 8s 18 20 mph 1014.3mb 63f 65f
10:04am 2ft 4s 16 20 mph 1015mb 63f 65f
9:04am 2.5ft 3s 16 18 mph 1015.4mb 63f 64f
8:04am 2.5ft 8s 16 18 mph 1015.7mb 63f 64f
7:04am 2.5ft 6s 16 18 mph 1016mb 64f 64f
6:04am 2.5ft 8s 13 16 mph 1016.1mb 64f 64f
5:04am 3.5ft 6s 13 16 mph 1016.2mb 64f 65f
4:04am 3ft 8s 16 16 mph 1016.3mb 64f 65f
3:04am 3.5ft 8s 16 20 mph 1016.4mb 64f 65f
2:04am 2.5ft 3s 16 16 mph 1017.2mb 64f 65f
1:04am 3.5ft 8s 16 18 mph 1017.5mb 64f 67f
12:04am 2.5ft 8s 16 18 mph 1018.2mb 64f 66f
Wed 07/26 11:04pm 3ft 8s 13 13 mph 1018.8mb 64f 66f
10:04pm 2.5ft 8s 13 18 mph 1019.4mb 64f 66f
9:04pm 2.5ft 8s 13 16 mph 1019.7mb 64f 65f
8:04pm 2.5ft 8s 11 13 mph 1019.8mb 64f 66f
7:04pm 1ft 3s 9 11 mph 1019.8mb 64f 66f
6:04pm 2.5ft 6s 11 11 mph 1019.9mb 65f 67f
5:04pm 2.5ft 8s 9 11 mph 1020.5mb 64f 66f
4:04pm 2.5ft 8s 9 11 mph 1021mb 64f 66f
3:04pm 2.5ft 8s 7 9 mph 1021.5mb 65f 67f
2:04pm 3.5ft 8s 7 9 mph 1021.5mb 64f 68f
1:04pm 3.5ft 8s 4 4 mph 1022.1mb 63f 69f
12:04pm 3.5ft 8s 2 2 mph 1022.7mb 64f 70f
11:04am 2.5ft 8s 2 2 mph 1023.3mb 63f 67f
10:04am 3ft 8s 2 4 mph 1023.7mb 63f 64f
9:04am 3ft 8s 4 4 mph 1023.4mb 63f 64f
8:04am 2.5ft 8s 7 7 mph 1023.6mb 63f 63f
7:04am 2.5ft 8s 7 9 mph 1023.3mb 63f 63f
6:04am 2.5ft 8s 7 9 mph 1022.9mb 63f 62f
5:04am 3.5ft 8s 4 4 mph 1022.4mb 62f 62f
4:04am 3ft 8s 4 7 mph 1022.1mb 62f 62f
3:04am 3ft 8s 4 7 mph 1021.8mb 64f 62f
2:04am 4ft 8s 9 9 mph 1021.9mb 65f 62f
1:04am 4ft 8s 11 13 mph 1022.2mb 65f 63f
12:04am 4ft 8s 13 13 mph 1022.3mb 65f 64f
Tue 07/25 11:04pm 4.5ft 6s 13 16 mph 1022.3mb 65f 64f
10:04pm 3.5ft 8s 11 13 mph 1022.2mb 66f 64f
9:04pm 4ft 8s 9 11 mph 1022.1mb 66f 64f
8:04pm 3ft 8s 9 11 mph 1021.8mb 66f 64f
7:04pm 3.5ft 8s 9 9 mph 1021.6mb 66f 65f
6:04pm 4.5ft 8s 9 9 mph 1021.2mb 66f 64f
5:04pm 4.5ft 8s 4 7 mph 1021mb 66f 64f
3:04pm 5.5ft 8s 2 4 mph 1020.5mb 66f 63f
2:04pm 5.5ft 8s 7 9 mph 1020.2mb 66f 62f
1:04pm 6.5ft 8s 13 16 mph 1020.1mb 65f 62f
12:04pm 6ft 8s 13 16 mph 1019.8mb 65f 62f
11:04am 6ft 8s 18 20 mph 1019.4mb 65f 61f
10:04am 6ft 8s 18 20 mph 1019.3mb 65f 61f
9:04am 6.5ft 8s 18 22 mph 1018.9mb 65f 60f
8:04am 5.5ft 8s 18 22 mph 1018.5mb 65f 60f
7:04am 6ft 8s 18 22 mph 1017.8mb 65f 60f
6:04am 7ft 8s 16 20 mph 1017.2mb 65f 60f
5:04am 6ft 8s 16 20 mph 1016.6mb 65f 59f
4:04am 7ft 8s 18 22 mph 1015.5mb 65f 59f
3:04am 7ft 6s 18 22 mph 1015.4mb 65f 59f
2:04am 8.5ft 8s 20 25 mph 1015.3mb 65f 59f
1:04am 7ft 8s 22 27 mph 1015.1mb 65f 60f
Mon 07/24 11:04pm 8.5ft 6s 27 31 mph 1014.9mb 65f 58f
10:04pm 9ft 6s 27 31 mph 1014.6mb 65f 58f
9:04pm 8ft 6s 27 31 mph 1014.4mb 66f 59f
8:04pm 7ft 6s 27 34 mph 1014.1mb 66f 59f
7:04pm 6.5ft 5s 27 34 mph 1013.7mb 66f 59f
6:04pm 6ft 6s 25 31 mph 1013.9mb 66f 59f
5:04pm 5.5ft 6s 20 27 mph 1013.9mb 66f 60f
4:04pm 6ft 5s 18 22 mph 1014.2mb 66f 59f
3:04pm 5ft 5s 20 25 mph 1014.1mb 66f 60f
1:04pm 4.5ft 5s 18 22 mph 1014.7mb 66f 65f
12:04pm 3.5ft 5s 16 20 mph 1015mb 66f 65f
11:04am 3.5ft 4s 18 22 mph 1015.2mb 66f 65f
10:04am 2.5ft 8s 16 18 mph 1015.2mb 67f 66f
9:04am 2.5ft 4s 13 16 mph 1015.5mb 67f 66f
8:04am 1.6ft 3s 13 16 mph 1015.5mb 67f 67f
7:04am  -   -  13 16 mph 1014.7mb 67f 67f
6:04am 2ft 11s 11 13 mph 1014.5mb 67f 67f
5:04am 1.6ft 11s 9 11 mph 1014.6mb 67f 67f
4:04am 1.3ft 5s 2 2 mph 1014.4mb 67f 66f
3:04am 2ft 11s 4 7 mph 1014.1mb 67f 66f